createdAt,value
2023-03-02T00:00:13.413Z,21.23
2023-03-02T00:04:13.581Z,21.22
2023-03-02T00:08:13.794Z,21.21
2023-03-02T00:12:14.035Z,21.21
2023-03-02T00:16:14.232Z,21.20
2023-03-02T00:20:14.278Z,21.19
2023-03-02T00:24:14.340Z,21.18
2023-03-02T00:28:14.487Z,21.17
2023-03-02T00:32:14.590Z,21.15
2023-03-02T00:36:14.591Z,21.15
2023-03-02T00:40:14.584Z,21.14
2023-03-02T00:44:14.631Z,21.13
2023-03-02T00:48:14.651Z,21.13
2023-03-02T00:52:14.700Z,21.12
2023-03-02T00:56:14.734Z,21.11
2023-03-02T01:00:14.751Z,21.10
2023-03-02T01:04:14.819Z,21.08
2023-03-02T01:08:14.835Z,21.08
2023-03-02T01:12:14.837Z,21.07
2023-03-02T01:16:14.904Z,21.05
2023-03-02T01:20:14.810Z,21.05
2023-03-02T01:24:14.819Z,21.04
2023-03-02T01:28:14.809Z,21.03
2023-03-02T01:32:14.784Z,21.03
2023-03-02T01:36:14.791Z,21.02
2023-03-02T01:40:14.798Z,21.00
2023-03-02T01:44:14.849Z,21.00
2023-03-02T01:48:14.831Z,20.99
2023-03-02T01:52:14.832Z,20.98
2023-03-02T01:56:14.885Z,20.98
2023-03-02T02:00:14.923Z,20.97
2023-03-02T02:04:14.993Z,20.96
2023-03-02T02:08:14.971Z,20.95
2023-03-02T02:12:14.977Z,20.94
2023-03-02T02:16:15.091Z,20.94
2023-03-02T02:20:15.055Z,20.93
2023-03-02T02:24:15.146Z,20.92
2023-03-02T02:28:15.185Z,20.92
2023-03-02T02:32:15.404Z,20.90
2023-03-02T02:36:15.286Z,20.89
2023-03-02T02:40:15.365Z,20.88
2023-03-02T02:44:17.155Z,20.88
2023-03-02T02:48:15.441Z,20.87
2023-03-02T02:52:15.511Z,20.86
2023-03-02T02:56:15.546Z,20.84
2023-03-02T03:00:15.684Z,20.83
2023-03-02T03:04:15.792Z,20.83
2023-03-02T03:08:15.829Z,20.82
2023-03-02T03:12:15.849Z,20.82
2023-03-02T03:16:16.143Z,20.80
2023-03-02T03:20:16.053Z,20.80
2023-03-02T03:24:16.163Z,20.79
2023-03-02T03:28:16.233Z,20.79
2023-03-02T03:32:16.413Z,20.78
2023-03-02T03:36:16.439Z,20.77
2023-03-02T03:40:16.500Z,20.76
2023-03-02T03:44:16.585Z,20.75
2023-03-02T03:48:16.720Z,20.74
2023-03-02T03:52:16.807Z,20.74
2023-03-02T03:56:16.900Z,20.73
2023-03-02T04:00:16.997Z,20.71
2023-03-02T04:04:17.134Z,20.72
2023-03-02T04:08:17.229Z,20.70
2023-03-02T04:12:17.342Z,20.69
2023-03-02T04:16:17.433Z,20.69
2023-03-02T04:20:17.551Z,20.68
2023-03-02T04:24:17.656Z,20.68
2023-03-02T04:28:17.857Z,20.67
2023-03-02T04:32:17.950Z,20.66
2023-03-02T04:36:18.060Z,20.65
2023-03-02T04:40:18.185Z,20.64
2023-03-02T04:44:18.325Z,20.63
2023-03-02T04:48:18.455Z,20.62
2023-03-02T04:52:18.569Z,20.62
2023-03-02T04:56:18.703Z,20.61
2023-03-02T05:00:18.874Z,20.61
2023-03-02T05:04:19.055Z,20.60
2023-03-02T05:08:19.157Z,20.59
2023-03-02T05:12:19.318Z,20.58
2023-03-02T05:16:19.677Z,20.58
2023-03-02T05:20:19.639Z,20.57
2023-03-02T05:24:19.772Z,20.56
2023-03-02T05:28:19.889Z,20.55
2023-03-02T05:32:20.041Z,20.55
2023-03-02T05:36:22.867Z,20.53
2023-03-02T05:40:20.152Z,20.53
2023-03-02T05:44:20.100Z,20.53
2023-03-02T05:48:20.053Z,20.52
2023-03-02T05:52:20.012Z,20.51
2023-03-02T05:56:19.998Z,20.49
2023-03-02T06:00:19.950Z,20.49
2023-03-02T06:04:19.915Z,20.50
2023-03-02T06:08:19.868Z,20.52
2023-03-02T06:12:19.867Z,20.53
2023-03-02T06:16:19.910Z,20.53
2023-03-02T06:20:19.783Z,20.55
2023-03-02T06:24:19.741Z,20.56
2023-03-02T06:28:19.697Z,20.58
2023-03-02T06:32:19.742Z,20.58
2023-03-02T06:36:19.783Z,20.61
2023-03-02T06:40:19.830Z,20.62
2023-03-02T06:44:20.244Z,20.66
2023-03-02T06:48:20.231Z,20.72
2023-03-02T06:52:20.225Z,20.79
2023-03-02T06:56:20.096Z,20.84
2023-03-02T07:00:20.239Z,20.90
2023-03-02T07:04:20.168Z,20.99
2023-03-02T07:08:20.245Z,21.07
2023-03-02T07:12:20.320Z,21.11
2023-03-02T07:16:20.260Z,21.15
2023-03-02T07:20:20.225Z,21.22
2023-03-02T07:24:20.200Z,21.29
2023-03-02T07:28:20.216Z,21.32
2023-03-02T07:32:20.170Z,21.35
2023-03-02T07:36:20.081Z,21.38
2023-03-02T07:40:20.254Z,21.40
2023-03-02T07:44:20.000Z,21.43
2023-03-02T07:48:19.968Z,21.45
2023-03-02T07:52:20.281Z,21.53
2023-03-02T07:56:19.924Z,21.58
2023-03-02T08:00:20.256Z,21.67
2023-03-02T08:04:19.888Z,21.74
2023-03-02T08:08:20.291Z,21.76
2023-03-02T08:12:19.744Z,21.80
2023-03-02T08:16:19.726Z,21.84
2023-03-02T08:20:19.821Z,21.89
2023-03-02T08:24:20.011Z,21.89
2023-03-02T08:28:20.228Z,21.90
2023-03-02T08:32:20.193Z,21.93
2023-03-02T08:36:20.157Z,21.94
2023-03-02T08:40:20.268Z,21.98
2023-03-02T08:44:20.293Z,22.00
2023-03-02T08:48:20.284Z,22.00
2023-03-02T08:52:20.091Z,22.08
2023-03-02T08:56:20.003Z,22.08
2023-03-02T09:00:20.263Z,22.08
2023-03-02T09:04:19.955Z,22.05
2023-03-02T09:08:19.970Z,22.05
2023-03-02T09:12:20.022Z,22.09
2023-03-02T09:16:20.053Z,22.11
2023-03-02T09:20:20.275Z,22.08
2023-03-02T09:24:19.908Z,22.06
2023-03-02T09:28:20.278Z,22.10
2023-03-02T09:32:19.946Z,22.10
2023-03-02T09:36:20.318Z,22.08
2023-03-02T09:40:19.753Z,22.11
2023-03-02T09:44:19.804Z,22.18
2023-03-02T09:48:19.813Z,22.18
2023-03-02T09:52:19.806Z,22.05
2023-03-02T09:56:19.795Z,22.09
2023-03-02T10:00:20.532Z,22.13
2023-03-02T10:04:19.964Z,22.19
2023-03-02T10:08:19.618Z,22.22
2023-03-02T10:12:19.689Z,22.25
2023-03-02T10:16:19.609Z,22.28
2023-03-02T10:20:19.525Z,22.31
2023-03-02T10:24:19.486Z,22.34
2023-03-02T10:28:19.794Z,22.37
2023-03-02T10:32:19.489Z,22.36
2023-03-02T10:36:20.805Z,22.37
2023-03-02T10:40:19.822Z,22.37
2023-03-02T10:44:19.318Z,22.40
2023-03-02T10:48:19.318Z,22.35
2023-03-02T10:52:19.203Z,22.24
2023-03-02T10:56:19.163Z,22.28
2023-03-02T11:00:19.274Z,22.34
2023-03-02T11:04:19.881Z,22.36
2023-03-02T11:08:19.664Z,22.39
2023-03-02T11:12:19.775Z,22.43
2023-03-02T11:16:20.049Z,22.45
2023-03-02T11:20:20.359Z,22.48
2023-03-02T11:24:20.113Z,22.49
2023-03-02T11:28:20.245Z,22.51
2023-03-02T11:32:20.439Z,22.52
2023-03-02T11:36:20.817Z,22.55
2023-03-02T11:40:20.847Z,22.57
2023-03-02T11:44:20.665Z,22.60
2023-03-02T11:48:20.774Z,22.62
2023-03-02T11:52:21.358Z,22.62
2023-03-02T11:56:20.999Z,22.68
2023-03-02T12:00:21.028Z,22.72
2023-03-02T12:04:21.347Z,22.72
2023-03-02T12:08:21.134Z,22.68
2023-03-02T12:12:21.141Z,22.67
2023-03-02T12:16:21.214Z,22.69
2023-03-02T12:20:21.189Z,22.70
2023-03-02T12:24:21.357Z,22.70
2023-03-02T12:28:21.409Z,22.75
2023-03-02T12:32:21.410Z,22.83
2023-03-02T12:36:21.387Z,22.86
2023-03-02T12:40:21.421Z,22.86
2023-03-02T12:44:21.845Z,22.85
2023-03-02T12:48:21.730Z,22.75
2023-03-02T12:52:23.826Z,22.68
2023-03-02T12:56:21.753Z,22.66
2023-03-02T13:00:21.962Z,22.68
2023-03-02T13:04:22.393Z,22.67
2023-03-02T13:08:22.213Z,22.66
2023-03-02T13:12:22.351Z,22.65
2023-03-02T13:16:22.559Z,22.64
2023-03-02T13:20:22.872Z,22.62
2023-03-02T13:24:22.866Z,22.59
2023-03-02T13:28:23.372Z,22.58
2023-03-02T13:32:23.482Z,22.54
2023-03-02T13:36:23.425Z,22.55
2023-03-02T13:40:23.709Z,22.54
2023-03-02T13:44:23.823Z,22.56
2023-03-02T13:48:24.416Z,22.54
2023-03-02T13:52:24.136Z,22.55
2023-03-02T13:56:24.340Z,22.53
2023-03-02T14:00:24.312Z,22.47
2023-03-02T14:04:24.452Z,22.43
2023-03-02T14:08:24.238Z,22.39
2023-03-02T14:12:24.186Z,22.35
2023-03-02T14:16:24.159Z,22.30
2023-03-02T14:20:24.388Z,22.28
2023-03-02T14:24:24.068Z,22.28
2023-03-02T14:28:24.052Z,22.28
2023-03-02T14:32:24.023Z,22.31
2023-03-02T14:36:23.952Z,22.60
2023-03-02T14:40:23.937Z,22.46
2023-03-02T14:44:23.895Z,22.34
2023-03-02T14:48:23.840Z,22.27
2023-03-02T14:52:23.795Z,22.24
2023-03-02T14:56:23.867Z,22.21
2023-03-02T15:00:23.760Z,22.16
2023-03-02T15:04:23.856Z,22.11
2023-03-02T15:08:24.422Z,22.06
2023-03-02T15:12:24.418Z,22.02
2023-03-02T15:16:24.586Z,21.98
2023-03-02T15:20:24.150Z,21.95
2023-03-02T15:24:24.408Z,21.94
2023-03-02T15:28:24.328Z,21.91
2023-03-02T15:32:24.478Z,21.89
2023-03-02T15:36:24.463Z,21.87
2023-03-02T15:40:24.561Z,21.85
2023-03-02T15:44:24.682Z,21.82
2023-03-02T15:48:24.768Z,21.80
2023-03-02T15:52:24.844Z,21.79
2023-03-02T15:56:28.345Z,21.78
2023-03-02T16:00:25.921Z,21.76
2023-03-02T16:04:24.864Z,21.74
2023-03-02T16:08:24.827Z,21.73
2023-03-02T16:12:24.815Z,21.71
2023-03-02T16:16:24.986Z,21.70
2023-03-02T16:20:25.050Z,21.69
2023-03-02T16:24:25.171Z,21.68
2023-03-02T16:28:25.293Z,21.67
2023-03-02T16:32:25.515Z,21.65
2023-03-02T16:36:25.933Z,21.64
2023-03-02T16:40:25.788Z,21.62
2023-03-02T16:44:25.970Z,21.61
2023-03-02T16:48:26.163Z,21.58
2023-03-02T16:52:26.393Z,21.55
2023-03-02T16:56:26.379Z,21.51
2023-03-02T17:00:26.353Z,21.47
2023-03-02T17:04:26.304Z,21.43
2023-03-02T17:08:26.202Z,21.40
2023-03-02T17:12:26.196Z,21.33
2023-03-02T17:16:26.146Z,21.29
2023-03-02T17:20:26.142Z,21.23
2023-03-02T17:24:26.053Z,21.18
2023-03-02T17:28:26.057Z,21.14
2023-03-02T17:32:26.553Z,21.13
2023-03-02T17:36:25.960Z,21.08
2023-03-02T17:40:25.922Z,21.05
2023-03-02T17:44:25.893Z,20.99
2023-03-02T17:48:25.861Z,20.95
2023-03-02T17:52:25.833Z,20.91
2023-03-02T17:56:25.771Z,20.89
2023-03-02T18:00:25.747Z,20.87
2023-03-02T18:04:25.829Z,20.80
2023-03-02T18:08:26.465Z,20.69
2023-03-02T18:12:26.075Z,20.55
2023-03-02T18:16:26.189Z,20.44
2023-03-02T18:20:26.188Z,20.35
2023-03-02T18:24:26.314Z,20.27
2023-03-02T18:28:26.435Z,20.16
2023-03-02T18:32:26.596Z,20.08
2023-03-02T18:36:26.727Z,20.02
2023-03-02T18:40:26.938Z,19.95
2023-03-02T18:44:26.917Z,19.88
2023-03-02T18:48:26.836Z,19.83
2023-03-02T18:52:26.801Z,19.77
2023-03-02T18:56:26.753Z,19.72
2023-03-02T19:00:28.027Z,19.64
2023-03-02T19:04:26.777Z,19.58
2023-03-02T19:08:26.654Z,19.52
2023-03-02T19:12:26.634Z,19.45
2023-03-02T19:16:26.649Z,19.40
2023-03-02T19:20:26.540Z,19.37
2023-03-02T19:24:26.541Z,19.32
2023-03-02T19:28:26.461Z,19.27
2023-03-02T19:32:26.481Z,19.20
2023-03-02T19:36:26.386Z,19.16
2023-03-02T19:40:28.312Z,19.14
2023-03-02T19:44:26.310Z,19.06
2023-03-02T19:48:26.318Z,19.01
2023-03-02T19:52:26.325Z,18.98
2023-03-02T19:56:26.224Z,18.92
2023-03-02T20:00:26.203Z,18.90
2023-03-02T20:04:26.193Z,18.88
2023-03-02T20:08:26.124Z,18.85
2023-03-02T20:12:26.098Z,18.82
2023-03-02T20:16:26.063Z,18.77
2023-03-02T20:20:26.016Z,18.74
2023-03-02T20:24:25.972Z,18.69
2023-03-02T20:28:25.933Z,18.66
2023-03-02T20:32:25.995Z,18.60
2023-03-02T20:36:25.919Z,18.56
2023-03-02T20:40:25.865Z,18.50
2023-03-02T20:44:25.971Z,18.43
2023-03-02T20:48:26.075Z,18.37
2023-03-02T20:52:26.155Z,18.33
2023-03-02T20:56:26.298Z,18.32
2023-03-02T21:00:26.376Z,18.29
2023-03-02T21:04:26.550Z,18.25
2023-03-02T21:08:26.704Z,18.20
2023-03-02T21:12:26.880Z,18.17
2023-03-02T21:16:27.043Z,18.11
2023-03-02T21:20:27.180Z,18.06
2023-03-02T21:24:27.413Z,18.02
2023-03-02T21:28:27.589Z,17.97
2023-03-02T21:32:27.848Z,17.94
2023-03-02T21:36:27.758Z,17.91
2023-03-02T21:40:27.737Z,17.88
2023-03-02T21:44:27.686Z,17.85
2023-03-02T21:48:27.639Z,17.84
2023-03-02T21:52:27.596Z,17.80
2023-03-02T21:56:27.622Z,17.75
2023-03-02T22:00:27.526Z,17.70
2023-03-02T22:04:27.495Z,17.65
2023-03-02T22:08:27.483Z,17.58
2023-03-02T22:12:27.425Z,17.54
2023-03-02T22:16:27.430Z,17.52
2023-03-02T22:20:27.358Z,17.51
2023-03-02T22:24:27.348Z,17.49
2023-03-02T22:28:27.270Z,17.43
2023-03-02T22:32:27.333Z,17.42
2023-03-02T22:36:27.223Z,17.37
2023-03-02T22:40:27.178Z,17.31
2023-03-02T22:44:27.095Z,17.29
2023-03-02T22:48:27.145Z,17.26
2023-03-02T22:52:27.229Z,17.22
2023-03-02T22:56:27.327Z,17.18
2023-03-02T23:00:27.414Z,17.17
2023-03-02T23:04:27.551Z,17.16
2023-03-02T23:08:27.582Z,17.18
2023-03-02T23:12:27.747Z,17.11
2023-03-02T23:16:27.965Z,17.07
2023-03-02T23:20:28.064Z,17.03
2023-03-02T23:24:28.232Z,16.98
2023-03-02T23:28:28.432Z,16.94
2023-03-02T23:32:28.502Z,16.89
2023-03-02T23:36:28.383Z,16.87
2023-03-02T23:40:28.329Z,16.84
2023-03-02T23:44:28.289Z,16.82
2023-03-02T23:48:28.264Z,16.78
2023-03-02T23:52:28.218Z,16.80
2023-03-02T23:56:28.178Z,16.79
